Time;durP1;ratioP1;P1;durP2;ratioP2;P2;SDS_P1;SDS_P2;PMS_P1;PMS_P2;Temp;Humidity;BMP_temperature;BMP_pressure;BME280_temperature;BME280_humidity;BME280_pressure;Samples;Min_cycle;Max_cycle;Signal;HPM_P1;HPM_P2
2024/03/21 00:02:12;;;;;;;9.30;5.37;;;;;;;15.35;48.75;97698.75;5027385;28;20182;-71
2024/03/21 00:04:38;;;;;;;7.93;6.07;;;;;;;15.26;48.93;97697.13;5031596;28;20720;-70
2024/03/21 00:07:04;;;;;;;11.73;5.70;;;;;;;15.33;48.40;97692.81;5027966;28;20613;-71
2024/03/21 00:09:30;;;;;;;6.13;4.90;;;;;;;15.26;49.07;97698.94;5033961;28;20679;-71
2024/03/21 00:11:56;;;;;;;9.57;5.10;;;;;;;15.23;49.08;97694.03;5027137;28;20462;-69
2024/03/21 00:14:22;;;;;;;7.27;5.00;;;;;;;15.27;49.13;97695.31;5026776;28;20560;-69
2024/03/21 00:16:48;;;;;;;6.23;4.70;;;;;;;15.27;49.02;97690.03;5034831;28;20945;-71
2024/03/21 00:19:14;;;;;;;6.33;4.57;;;;;;;15.26;48.94;97693.66;5027765;28;20195;-71
2024/03/21 00:21:39;;;;;;;8.00;4.67;;;;;;;15.26;48.90;97685.75;5028189;28;20900;-69
2024/03/21 00:24:05;;;;;;;8.97;5.00;;;;;;;15.18;49.15;97694.53;5029522;28;20790;-71
2024/03/21 00:26:30;;;;;;;7.70;4.70;;;;;;;15.18;49.02;97686.63;5027975;28;20207;-70
2024/03/21 00:28:56;;;;;;;5.97;4.87;;;;;;;15.15;49.21;97693.03;5027765;28;20195;-70
2024/03/21 00:31:21;;;;;;;6.07;4.50;;;;;;;15.24;48.74;97685.91;5027507;28;20212;-73
2024/03/21 00:33:49;;;;;;;7.50;4.70;;;;;;;15.29;48.17;97682.75;5029916;28;20849;-72
2024/03/21 00:36:15;;;;;;;5.73;4.37;;;;;;;15.06;48.96;97688.78;5033185;28;20200;-71
2024/03/21 00:38:41;;;;;;;7.83;4.67;;;;;;;15.07;49.42;97681.66;5031320;28;20997;-70
2024/03/21 00:41:07;;;;;;;6.00;4.50;;;;;;;15.05;48.99;97673.94;5033779;28;20287;-69
2024/03/21 00:43:32;;;;;;;7.30;4.50;;;;;;;14.88;49.50;97670.50;5031727;28;20971;-71
2024/03/21 00:45:57;;;;;;;5.47;4.17;;;;;;;14.87;49.79;97674.16;5038573;28;20614;-70
2024/03/21 00:48:23;;;;;;;5.37;4.03;;;;;;;14.94;49.97;97669.00;5035731;28;20279;-71
2024/03/21 00:50:48;;;;;;;7.87;4.00;;;;;;;15.01;49.86;97667.34;5028262;28;20207;-72
2024/03/21 00:53:14;;;;;;;8.93;4.27;;;;;;;15.01;49.52;97673.44;5026659;28;20229;-70
2024/03/21 00:55:39;;;;;;;7.10;4.70;;;;;;;15.03;49.65;97671.47;5032704;28;20660;-70
2024/03/21 00:58:05;;;;;;;6.87;4.77;;;;;;;15.09;49.29;97666.50;5029972;28;20608;-69
2024/03/21 01:00:30;;;;;;;8.97;4.97;;;;;;;15.04;49.24;97669.66;5036323;28;20180;-70
2024/03/21 01:02:57;;;;;;;7.53;4.33;;;;;;;15.08;49.02;97670.97;5027230;28;20207;-69
2024/03/21 01:05:22;;;;;;;9.20;5.03;;;;;;;15.04;49.22;97665.22;5035375;28;20762;-70
2024/03/21 01:07:47;;;;;;;9.10;4.37;;;;;;;14.99;49.34;97670.16;5033729;28;20557;-69
2024/03/21 01:10:13;;;;;;;6.80;4.10;;;;;;;14.85;49.63;97666.41;5026709;28;20211;-71
2024/03/21 01:12:39;;;;;;;8.20;4.03;;;;;;;14.87;49.64;97672.31;5027184;28;20223;-69
2024/03/21 01:15:05;;;;;;;7.00;4.20;;;;;;;14.85;50.00;97663.78;5028005;28;20195;-69
2024/03/21 01:17:31;;;;;;;6.30;4.17;;;;;;;14.61;50.29;97667.22;5031379;28;20213;-69
2024/03/21 01:19:56;;;;;;;9.00;4.47;;;;;;;14.76;50.26;97656.84;5036465;28;20798;-71
2024/03/21 01:22:22;;;;;;;7.30;4.73;;;;;;;14.69;50.54;97658.50;5029711;28;20278;-69
2024/03/21 01:24:48;;;;;;;6.07;4.50;;;;;;;14.65;50.47;97659.78;5026236;28;20184;-69
2024/03/21 01:27:14;;;;;;;7.20;4.73;;;;;;;14.76;50.11;97667.38;5030099;28;20227;-69
2024/03/21 01:29:40;;;;;;;5.30;3.70;;;;;;;14.83;50.04;97657.84;5036354;28;20427;-68
2024/03/21 01:32:05;;;;;;;7.47;4.70;;;;;;;14.86;49.85;97662.78;5035013;28;20469;-69
2024/03/21 01:34:31;;;;;;;6.27;3.97;;;;;;;14.90;49.74;97664.06;5034087;28;20206;-70
2024/03/21 01:36:57;;;;;;;12.80;4.00;;;;;;;14.84;49.63;97658.63;5035094;28;20192;-71
2024/03/21 01:39:23;;;;;;;7.03;4.60;;;;;;;14.84;49.80;97659.47;5030630;28;20219;-70
2024/03/21 01:41:49;;;;;;;8.37;4.33;;;;;;;14.83;49.94;97655.19;5031153;28;20176;-70
2024/03/21 01:44:16;;;;;;;5.93;4.20;;;;;;;14.70;50.31;97658.34;5029699;28;20453;-70
2024/03/21 01:46:42;;;;;;;5.73;4.80;;;;;;;14.71;49.98;97654.72;5032742;28;20211;-71
2024/03/21 01:49:09;;;;;;;7.17;5.50;;;;;;;14.67;50.36;97649.91;5029943;28;20417;-71
2024/03/21 01:51:34;;;;;;;7.60;6.07;;;;;;;14.49;50.80;97645.63;5033751;28;20203;-72
2024/03/21 01:53:59;;;;;;;9.33;5.17;;;;;;;14.61;50.54;97653.22;5030038;28;20421;-70
2024/03/21 01:56:25;;;;;;;9.30;5.80;;;;;;;14.59;50.75;97641.03;5035075;28;20208;-71
2024/03/21 01:58:50;;;;;;;20.80;5.70;;;;;;;14.62;50.56;97637.22;5030516;28;20665;-69
2024/03/21 02:01:22;;;;;;;12.83;5.70;;;;;;;14.68;50.56;97648.94;5037380;28;20230;-70
2024/03/21 02:03:50;;;;;;;8.30;5.20;;;;;;;14.69;50.24;97635.59;5032580;28;20191;-72
2024/03/21 02:06:15;;;;;;;7.33;4.83;;;;;;;14.59;50.51;97651.56;5046963;28;20437;-72
2024/03/21 02:08:40;;;;;;;7.17;5.47;;;;;;;14.57;51.05;97647.44;5037573;28;20433;-68
2024/03/21 02:11:07;;;;;;;6.23;4.80;;;;;;;14.55;50.89;97646.81;5026125;28;20298;-69
2024/03/21 02:13:32;;;;;;;6.10;4.27;;;;;;;14.60;50.88;97641.84;5037606;28;20679;-70
2024/03/21 02:15:58;;;;;;;6.90;4.57;;;;;;;14.63;51.16;97641.50;5029391;28;20454;-72
2024/03/21 02:18:23;;;;;;;6.13;4.00;;;;;;;14.65;50.83;97651.88;5029961;28;20180;-70
2024/03/21 02:20:48;;;;;;;5.30;4.23;;;;;;;14.59;51.14;97648.09;5038319;28;20171;-71
2024/03/21 02:23:14;;;;;;;4.73;4.17;;;;;;;14.55;51.03;97644.16;5033442;28;20271;-71
2024/03/21 02:25:39;;;;;;;7.40;4.70;;;;;;;14.56;51.25;97640.50;5029981;28;20295;-71
2024/03/21 02:28:07;;;;;;;8.03;4.30;;;;;;;14.57;51.67;97634.25;5029828;28;20230;-70
2024/03/21 02:30:33;;;;;;;12.50;7.93;;;;;;;14.61;51.74;97647.94;5029430;28;20776;-72
2024/03/21 02:32:58;;;;;;;18.57;9.60;;;;;;;14.54;52.14;97647.78;5024870;28;20423;-71
2024/03/21 02:35:24;;;;;;;21.53;12.80;;;;;;;14.58;51.93;97649.09;5029517;28;20208;-73
2024/03/21 02:37:50;;;;;;;17.93;11.33;;;;;;;14.53;52.07;97652.22;5036207;28;20208;-71
2024/03/21 02:40:15;;;;;;;12.47;9.00;;;;;;;14.50;52.30;97649.09;5027183;28;20183;-69
2024/03/21 02:42:41;;;;;;;13.07;6.20;;;;;;;14.58;52.14;97644.66;5029272;28;20219;-69
2024/03/21 02:45:06;;;;;;;15.23;7.63;;;;;;;14.66;51.92;97646.47;5027782;28;20306;-69
2024/03/21 02:47:32;;;;;;;8.00;6.07;;;;;;;14.75;51.81;97644.63;5028626;28;20200;-69
2024/03/21 02:49:57;;;;;;;7.27;5.23;;;;;;;14.82;52.18;97650.91;5035713;28;20575;-69
2024/03/21 02:52:23;;;;;;;8.13;5.63;;;;;;;14.89;52.02;97651.06;5031250;28;20308;-71
2024/03/21 02:54:48;;;;;;;7.77;4.90;;;;;;;14.85;52.22;97644.47;5029398;28;20188;-73
2024/03/21 02:57:14;;;;;;;6.97;4.77;;;;;;;14.87;52.48;97650.41;5036807;28;20191;-71
2024/03/21 02:59:40;;;;;;;6.30;5.10;;;;;;;14.94;52.36;97647.91;5029154;28;20215;-70
2024/03/21 03:02:05;;;;;;;5.53;4.70;;;;;;;14.96;52.59;97653.84;5041115;28;20207;-71
2024/03/21 03:04:31;;;;;;;7.37;4.83;;;;;;;15.03;52.60;97649.53;5038167;28;20711;-72
2024/03/21 03:06:57;;;;;;;5.50;4.27;;;;;;;15.08;52.63;97652.47;5028655;28;20230;-70
2024/03/21 03:09:22;;;;;;;6.40;4.57;;;;;;;15.11;52.69;97653.94;5031239;28;20886;-69
2024/03/21 03:11:48;;;;;;;4.67;4.03;;;;;;;15.13;52.89;97652.78;5033790;28;20199;-69
2024/03/21 03:14:13;;;;;;;6.37;4.33;;;;;;;15.20;52.71;97653.75;5030619;28;20283;-70
2024/03/21 03:16:38;;;;;;;5.00;4.20;;;;;;;15.22;52.82;97650.13;5027367;28;20302;-70
2024/03/21 03:19:06;;;;;;;4.13;3.73;;;;;;;15.22;52.69;97650.94;5028660;28;20771;-70
2024/03/21 03:21:32;;;;;;;4.53;3.63;;;;;;;15.20;53.11;97652.91;5028596;28;20179;-69
2024/03/21 03:23:57;;;;;;;3.90;3.50;;;;;;;15.22;53.05;97656.22;5031534;28;20437;-70
2024/03/21 03:26:23;;;;;;;4.03;3.63;;;;;;;15.20;53.38;97656.41;5036772;28;20195;-71
2024/03/21 03:28:48;;;;;;;4.07;3.63;;;;;;;15.24;53.23;97653.44;5028924;28;20175;-71
2024/03/21 03:31:13;;;;;;;4.67;3.73;;;;;;;15.30;53.58;97658.00;5028273;28;20303;-71
2024/03/21 03:36:23;;;;;;;5.30;3.43;;;;;;;15.34;53.34;97670.69;5036910;28;20207;-71
2024/03/21 03:38:49;;;;;;;9.00;3.63;;;;;;;15.27;53.34;97668.91;5028950;28;20421;-73
2024/03/21 03:41:14;;;;;;;4.93;3.20;;;;;;;15.29;53.40;97673.03;5030060;28;20190;-71
2024/03/21 03:43:39;;;;;;;3.53;3.13;;;;;;;15.31;53.46;97672.84;5028465;28;20180;-72
2024/03/21 03:46:05;;;;;;;5.07;3.10;;;;;;;15.40;53.21;97669.19;5032687;28;20696;-71
2024/03/21 03:48:30;;;;;;;3.27;2.97;;;;;;;15.44;53.21;97667.00;5029208;28;20493;-70
2024/03/21 03:50:56;;;;;;;4.43;3.50;;;;;;;15.52;52.65;97670.44;5032052;28;20294;-70
2024/03/21 03:53:21;;;;;;;2.83;2.60;;;;;;;15.57;52.61;97680.50;5027913;28;20250;-68
2024/03/21 03:55:47;;;;;;;4.20;3.10;;;;;;;15.62;52.46;97674.72;5026751;28;20191;-70
2024/03/21 03:58:12;;;;;;;7.03;3.20;;;;;;;15.65;52.27;97677.81;5028330;28;20203;-69
2024/03/21 04:00:38;;;;;;;5.47;3.70;;;;;;;15.70;51.91;97674.66;5027331;28;20323;-73
2024/03/21 04:03:03;;;;;;;7.93;3.47;;;;;;;15.73;51.93;97670.84;5018953;28;20211;-70
2024/03/21 04:05:29;;;;;;;3.67;3.30;;;;;;;15.78;51.86;97671.97;5034032;28;20175;-72
2024/03/21 04:07:54;;;;;;;3.40;3.00;;;;;;;15.80;51.94;97672.63;5025319;28;20179;-73
2024/03/21 04:10:20;;;;;;;7.10;3.87;;;;;;;15.86;51.79;97676.41;5025431;28;20549;-72
2024/03/21 04:12:45;;;;;;;3.53;2.90;;;;;;;15.87;51.78;97679.91;5013833;28;20176;-71
2024/03/21 04:15:11;;;;;;;3.60;3.30;;;;;;;15.91;51.82;97678.53;5032010;28;20636;-71
2024/03/21 04:17:36;;;;;;;4.37;3.67;;;;;;;15.92;51.79;97680.19;5017855;28;20587;-72
2024/03/21 04:20:09;;;;;;;5.63;3.53;;;;;;;15.96;51.68;97689.41;5018656;28;20172;-70
2024/03/21 04:22:35;;;;;;;3.97;3.23;;;;;;;15.96;51.70;97684.13;5027040;28;20191;-71
2024/03/21 04:25:02;;;;;;;3.20;2.90;;;;;;;15.94;51.78;97686.13;5027971;28;20415;-69
2024/03/21 04:27:28;;;;;;;5.67;3.30;;;;;;;15.94;52.13;97686.13;5026901;28;20196;-70
2024/03/21 04:29:53;;;;;;;5.23;3.50;;;;;;;15.92;51.92;97680.19;5027486;28;20476;-70
2024/03/21 04:32:18;;;;;;;4.37;3.50;;;;;;;15.88;52.09;97692.13;5026933;28;20183;-70
2024/03/21 04:34:44;;;;;;;5.77;3.60;;;;;;;15.83;52.52;97700.50;5022998;28;20250;-70
2024/03/21 04:37:14;;;;;;;6.40;3.47;;;;;;;15.75;52.58;97693.44;5027395;28;20338;-71
2024/03/21 04:39:40;;;;;;;3.93;3.00;;;;;;;15.70;52.77;97697.59;5030452;28;20189;-71
2024/03/21 04:42:05;;;;;;;5.87;3.00;;;;;;;15.70;52.97;97701.09;5027753;28;20515;-73
2024/03/21 04:44:31;;;;;;;3.63;2.80;;;;;;;15.69;52.95;97706.56;5025664;28;20183;-71
2024/03/21 04:46:56;;;;;;;4.23;3.03;;;;;;;15.59;53.30;97712.03;5026652;28;20325;-71
2024/03/21 04:49:21;;;;;;;4.70;3.20;;;;;;;15.49;53.53;97712.25;5028522;28;20258;-71
2024/03/21 04:51:47;;;;;;;7.43;3.53;;;;;;;15.40;53.76;97706.16;5050069;28;20231;-70
2024/03/21 04:54:12;;;;;;;5.10;2.97;;;;;;;15.35;54.13;97709.31;5031050;28;20211;-71
2024/03/21 04:56:38;;;;;;;4.70;3.23;;;;;;;15.34;54.16;97701.56;5028819;28;20302;-73
2024/03/21 04:59:03;;;;;;;5.23;3.03;;;;;;;15.33;54.04;97699.91;5036740;28;20171;-70
2024/03/21 05:01:30;;;;;;;3.50;3.20;;;;;;;15.34;54.32;97706.84;5028609;28;20187;-71
2024/03/21 05:03:56;;;;;;;4.97;3.23;;;;;;;15.31;54.48;97709.81;5030964;28;20203;-71
2024/03/21 05:06:21;;;;;;;3.97;3.57;;;;;;;15.31;54.42;97708.00;5030561;28;20511;-70
2024/03/21 05:08:47;;;;;;;8.90;3.80;;;;;;;15.37;54.45;97711.81;5027073;28;20176;-73
2024/03/21 05:11:12;;;;;;;5.90;3.30;;;;;;;15.40;53.99;97710.63;5031078;28;20257;-70
2024/03/21 05:13:39;;;;;;;4.73;3.30;;;;;;;15.31;54.19;97712.47;5035061;28;20637;-71
2024/03/21 05:16:05;;;;;;;6.70;3.47;;;;;;;15.28;54.45;97710.16;5028539;28;20291;-70
2024/03/21 05:18:30;;;;;;;4.27;3.83;;;;;;;15.36;54.46;97712.78;5029351;28;20962;-70
2024/03/21 05:20:56;;;;;;;4.83;3.60;;;;;;;15.45;54.37;97709.13;5034994;28;20254;-72
2024/03/21 05:23:21;;;;;;;6.23;3.80;;;;;;;15.52;54.07;97704.78;5037490;28;20260;-71
2024/03/21 05:25:47;;;;;;;6.10;3.30;;;;;;;15.48;53.97;97703.50;5024997;28;20690;-70
2024/03/21 05:28:12;;;;;;;5.50;3.00;;;;;;;15.50;54.09;97701.50;5033000;28;20581;-69
2024/03/21 05:30:38;;;;;;;12.00;6.80;;;;;;;15.51;54.08;97707.59;5030795;28;20282;-70
2024/03/21 05:33:04;;;;;;;7.43;3.60;;;;;;;15.59;54.23;97704.94;5041337;28;20266;-70
2024/03/21 05:35:30;;;;;;;3.10;2.80;;;;;;;15.66;54.25;97707.69;5041076;28;20910;-69
2024/03/21 05:37:55;;;;;;;7.20;3.03;;;;;;;15.71;53.82;97701.88;5028099;28;20460;-70
2024/03/21 05:40:20;;;;;;;3.80;3.10;;;;;;;15.81;53.67;97713.91;5030627;28;20205;-70
2024/03/21 05:42:48;;;;;;;7.53;4.17;;;;;;;15.91;53.41;97708.44;5037986;28;20241;-71
2024/03/21 05:45:13;;;;;;;4.23;2.83;;;;;;;15.99;53.18;97712.88;5030298;28;20187;-69
2024/03/21 05:47:39;;;;;;;5.33;3.73;;;;;;;16.08;53.06;97713.59;5028977;28;20451;-72
2024/03/21 05:50:06;;;;;;;3.90;3.00;;;;;;;16.14;52.99;97707.63;5034483;28;20249;-72
2024/03/21 05:52:31;;;;;;;3.40;2.63;;;;;;;16.22;52.67;97704.13;5043195;28;20241;-69
2024/03/21 05:54:58;;;;;;;3.40;3.10;;;;;;;16.42;52.28;97709.75;5030214;28;20430;-70
2024/03/21 05:57:24;;;;;;;3.20;2.90;;;;;;;16.53;52.04;97711.13;5030558;28;20210;-69
2024/03/21 05:59:53;;;;;;;3.87;3.47;;;;;;;16.60;51.79;97709.44;5045208;28;20936;-71
2024/03/21 06:02:19;;;;;;;5.50;3.13;;;;;;;16.59;51.66;97708.59;5030122;28;20600;-72
2024/03/21 06:04:44;;;;;;;5.20;2.70;;;;;;;16.64;51.51;97712.53;5032542;28;20435;-72
2024/03/21 06:07:10;;;;;;;3.80;3.40;;;;;;;16.65;51.41;97714.19;5029691;28;20235;-70
2024/03/21 06:09:35;;;;;;;3.30;3.00;;;;;;;16.67;51.50;97722.78;5019082;28;20283;-72
2024/03/21 06:12:00;;;;;;;4.47;3.00;;;;;;;16.67;51.01;97718.31;5033721;28;20294;-69
2024/03/21 06:14:26;;;;;;;6.43;3.30;;;;;;;16.68;51.15;97719.94;5033535;28;20280;-70
2024/03/21 06:16:51;;;;;;;3.50;3.17;;;;;;;16.70;51.24;97723.25;5029255;28;20219;-70
2024/03/21 06:19:17;;;;;;;4.90;3.00;;;;;;;16.72;51.22;97723.88;5028899;28;20241;-70
2024/03/21 06:21:42;;;;;;;7.27;2.90;;;;;;;16.71;51.21;97722.25;5030139;28;20656;-72
2024/03/21 06:24:08;;;;;;;4.67;3.07;;;;;;;16.69;50.85;97732.19;5036769;28;20197;-72
2024/03/21 06:26:33;;;;;;;2.70;2.43;;;;;;;16.72;51.11;97734.47;5026709;28;20261;-69
2024/03/21 06:28:59;;;;;;;2.83;2.63;;;;;;;16.73;50.99;97738.78;5024331;28;20187;-70
2024/03/21 06:31:24;;;;;;;2.87;2.67;;;;;;;16.75;50.88;97751.81;5022395;28;20211;-69
2024/03/21 06:33:49;;;;;;;3.47;2.87;;;;;;;16.77;50.76;97756.91;5023751;28;20180;-70
2024/03/21 06:36:15;;;;;;;3.60;2.97;;;;;;;16.73;50.87;97759.94;5022707;28;20208;-72
2024/03/21 06:38:40;;;;;;;11.63;3.20;;;;;;;16.76;50.86;97760.59;5014911;28;20195;-72
2024/03/21 06:41:06;;;;;;;3.73;2.97;;;;;;;16.74;51.73;97766.88;5018648;28;20244;-72
2024/03/21 06:43:31;;;;;;;3.20;2.80;;;;;;;16.77;52.04;97765.69;5024096;28;20184;-72
2024/03/21 06:45:57;;;;;;;5.10;3.17;;;;;;;16.79;52.10;97762.84;5027308;28;20210;-71
2024/03/21 06:48:23;;;;;;;5.20;2.67;;;;;;;16.81;52.09;97761.69;5023542;28;20188;-70
2024/03/21 06:50:51;;;;;;;4.50;3.73;;;;;;;16.82;52.31;97768.63;5027269;28;20211;-73
2024/03/21 06:53:17;;;;;;;3.40;3.03;;;;;;;16.83;52.63;97772.09;5026425;28;20538;-72
2024/03/21 06:55:42;;;;;;;4.30;3.07;;;;;;;16.77;52.84;97781.56;5029424;28;20798;-73
2024/03/21 06:58:08;;;;;;;4.70;3.20;;;;;;;16.80;52.78;97780.38;5033073;28;20190;-75
2024/03/21 07:00:34;;;;;;;4.33;2.87;;;;;;;16.77;52.81;97788.69;5032736;28;20190;-72
2024/03/21 07:02:59;;;;;;;5.17;3.70;;;;;;;16.79;52.81;97781.38;5020097;28;20238;-72
2024/03/21 07:05:25;;;;;;;3.80;3.03;;;;;;;16.84;52.85;97786.97;5028235;28;20187;-74
2024/03/21 07:07:51;;;;;;;4.73;3.00;;;;;;;16.81;53.15;97793.47;5026588;28;20238;-73
2024/03/21 07:10:17;;;;;;;3.20;2.90;;;;;;;16.82;53.19;97789.78;5013070;28;20579;-73
2024/03/21 07:12:46;;;;;;;10.40;3.67;;;;;;;16.82;53.24;97794.28;5025020;28;20435;-74
2024/03/21 07:15:16;;;;;;;6.83;3.00;;;;;;;16.83;53.51;97801.22;5021382;28;20430;-74
2024/03/21 07:17:42;;;;;;;3.10;2.90;;;;;;;16.88;53.71;97801.53;5026822;28;20469;-74
2024/03/21 07:20:07;;;;;;;4.10;3.17;;;;;;;16.88;54.16;97796.22;5026218;28;20418;-73
2024/03/21 07:22:33;;;;;;;4.90;3.10;;;;;;;16.90;54.39;97794.19;5027888;28;20238;-73
2024/03/21 07:24:58;;;;;;;7.77;3.27;;;;;;;16.89;54.65;97800.50;5026729;28;20183;-74
2024/03/21 07:27:24;;;;;;;4.10;3.50;;;;;;;16.93;54.70;97799.13;5022249;28;20880;-73
2024/03/21 07:29:49;;;;;;;4.70;3.43;;;;;;;16.93;54.87;97801.78;5033245;28;20533;-73
2024/03/21 07:32:15;;;;;;;5.30;3.47;;;;;;;16.95;55.01;97805.13;5025665;28;20220;-74
2024/03/21 07:34:40;;;;;;;6.50;3.40;;;;;;;16.97;55.29;97813.72;5017653;28;20184;-75
2024/03/21 07:37:06;;;;;;;3.90;3.20;;;;;;;16.98;55.60;97820.66;5023434;28;20198;-73
2024/03/21 07:39:33;;;;;;;4.63;3.60;;;;;;;17.07;55.58;97818.75;5019175;28;20598;-74
2024/03/21 07:42:01;;;;;;;10.90;3.37;;;;;;;17.17;55.67;97819.34;5024600;28;20176;-73
2024/03/21 07:44:26;;;;;;;6.57;3.50;;;;;;;17.33;56.13;97820.16;5018354;28;20418;-70
2024/03/21 07:46:53;;;;;;;6.70;3.47;;;;;;;17.46;55.90;97819.53;5027485;28;20990;-73
2024/03/21 07:49:18;;;;;;;4.53;3.03;;;;;;;17.63;55.58;97817.53;5021816;28;20194;-70
2024/03/21 07:51:44;;;;;;;4.03;3.23;;;;;;;17.78;55.39;97830.78;5029534;28;20461;-71
2024/03/21 07:54:09;;;;;;;6.50;3.00;;;;;;;17.86;54.65;97828.06;5018079;28;20184;-73
2024/03/21 07:56:36;;;;;;;9.77;3.57;;;;;;;17.90;54.22;97824.00;5025022;28;20226;-72
2024/03/21 07:59:01;;;;;;;5.47;3.43;;;;;;;17.94;54.05;97832.44;5017535;28;20726;-72
2024/03/21 08:01:27;;;;;;;9.10;3.50;;;;;;;17.98;53.78;97838.22;5017811;28;20506;-73
2024/03/21 08:03:52;;;;;;;6.30;3.37;;;;;;;18.06;53.49;97835.47;5018394;28;20239;-73
2024/03/21 08:06:18;;;;;;;3.30;3.00;;;;;;;18.10;53.32;97834.09;5018367;28;20685;-72
2024/03/21 08:08:43;;;;;;;3.10;2.80;;;;;;;18.14;52.82;97840.69;5015261;28;20653;-73
2024/03/21 08:11:09;;;;;;;4.77;3.30;;;;;;;18.17;52.93;97842.13;5020942;28;20658;-73
2024/03/21 08:13:35;;;;;;;4.07;3.17;;;;;;;18.23;52.86;97844.88;5028927;28;20219;-71
2024/03/21 08:16:00;;;;;;;6.90;3.20;;;;;;;18.30;53.12;97846.78;5023946;28;20493;-73
2024/03/21 08:18:26;;;;;;;4.50;3.33;;;;;;;18.34;52.79;97843.56;5043105;28;20661;-72
2024/03/21 08:20:51;;;;;;;4.63;2.90;;;;;;;18.46;52.63;97851.88;5028031;28;20188;-72
2024/03/21 08:23:17;;;;;;;7.53;3.40;;;;;;;18.53;52.24;97851.94;5032829;28;20437;-72
2024/03/21 08:25:43;;;;;;;4.13;3.17;;;;;;;18.55;51.74;97853.38;5040372;28;20204;-73
2024/03/21 08:28:08;;;;;;;7.43;3.33;;;;;;;18.63;52.08;97856.94;5047359;28;20433;-73
2024/03/21 08:30:34;;;;;;;3.43;3.13;;;;;;;18.66;51.03;97856.56;5032185;28;20208;-74
2024/03/21 08:32:59;;;;;;;6.70;3.80;;;;;;;18.67;51.17;97851.06;5039479;28;20191;-72
2024/03/21 08:35:25;;;;;;;7.97;4.63;;;;;;;18.69;51.01;97858.84;5031092;28;20180;-73
2024/03/21 08:37:50;;;;;;;5.37;3.83;;;;;;;18.68;50.77;97862.50;5031389;28;20716;-72
2024/03/21 08:40:16;;;;;;;5.33;3.70;;;;;;;18.69;50.87;97878.25;5031732;28;20325;-73
2024/03/21 08:42:41;;;;;;;4.97;3.43;;;;;;;18.69;50.74;97875.59;5022744;28;20718;-72
2024/03/21 08:45:09;;;;;;;4.60;4.10;;;;;;;18.70;50.60;97887.03;5048049;28;20187;-71
2024/03/21 08:47:37;;;;;;;4.23;3.77;;;;;;;18.68;50.27;97897.00;5035040;28;20281;-74
2024/03/21 08:50:04;;;;;;;5.80;3.70;;;;;;;18.67;50.30;97898.84;5033017;28;20415;-72
2024/03/21 08:52:30;;;;;;;7.50;4.30;;;;;;;18.69;50.58;97891.53;5028748;28;22156;-71
2024/03/21 08:54:55;;;;;;;4.10;3.70;;;;;;;18.71;50.18;97891.34;5038605;28;20433;-72
2024/03/21 08:57:21;;;;;;;5.23;4.40;;;;;;;18.73;50.02;97890.13;5044610;28;20442;-72
2024/03/21 08:59:47;;;;;;;5.63;4.00;;;;;;;18.73;49.72;97897.28;5031614;28;20190;-72
2024/03/21 09:02:14;;;;;;;4.80;4.30;;;;;;;18.78;49.62;97905.50;5031051;28;20540;-73
2024/03/21 09:04:39;;;;;;;4.43;3.73;;;;;;;18.79;49.69;97906.34;5034267;28;20434;-72
2024/03/21 09:07:06;;;;;;;7.70;4.53;;;;;;;18.83;49.76;97913.72;5040944;28;20452;-72
2024/03/21 09:09:34;;;;;;;4.80;3.90;;;;;;;18.85;49.63;97910.88;5027314;28;20282;-74
2024/03/21 09:12:00;;;;;;;5.47;3.90;;;;;;;18.97;49.37;97912.06;5039329;28;20956;-73
2024/03/21 09:14:26;;;;;;;4.30;3.90;;;;;;;19.14;48.97;97917.97;5031396;28;20469;-72
2024/03/21 09:16:51;;;;;;;7.00;4.23;;;;;;;19.45;48.53;97906.16;5030857;28;21140;-71
2024/03/21 09:19:17;;;;;;;6.97;4.17;;;;;;;19.73;48.26;97913.31;5041570;28;20661;-72
2024/03/21 09:21:42;;;;;;;4.00;3.60;;;;;;;20.08;47.58;97901.91;5036681;28;20545;-74
2024/03/21 09:24:08;;;;;;;5.40;4.23;;;;;;;20.38;46.45;97904.28;5038640;28;20192;-72
2024/03/21 09:26:34;;;;;;;5.03;4.40;;;;;;;20.58;44.76;97903.56;5036728;28;20636;-74
2024/03/21 09:29:00;;;;;;;5.67;4.73;;;;;;;20.78;43.91;97900.97;5035459;28;20203;-74
2024/03/21 09:31:25;;;;;;;9.53;4.40;;;;;;;20.99;43.06;97886.66;5031400;28;20489;-72
2024/03/21 09:33:52;;;;;;;5.83;4.20;;;;;;;21.22;42.90;97891.63;5030731;28;20724;-71
2024/03/21 09:36:17;;;;;;;4.73;4.20;;;;;;;21.30;41.94;97896.72;5029503;28;20279;-72
2024/03/21 09:38:42;;;;;;;5.10;4.37;;;;;;;21.56;41.77;97894.28;5031063;28;20501;-72
2024/03/21 09:41:11;;;;;;;10.40;4.73;;;;;;;21.63;40.98;97892.44;5041035;28;20183;-71
2024/03/21 09:43:36;;;;;;;4.43;4.03;;;;;;;21.68;41.06;97902.50;5036553;28;20180;-71
2024/03/21 09:46:06;;;;;;;8.70;4.43;;;;;;;21.56;40.63;97911.09;5031274;28;20439;-74
2024/03/21 09:48:32;;;;;;;6.60;3.93;;;;;;;21.62;41.25;97915.66;5029569;28;20263;-72
2024/03/21 09:50:57;;;;;;;9.40;4.23;;;;;;;21.43;41.06;97921.75;5038192;28;20979;-72
2024/03/21 09:53:23;;;;;;;4.40;4.00;;;;;;;21.29;41.09;97929.78;5037040;28;20180;-71
2024/03/21 09:55:50;;;;;;;8.00;4.13;;;;;;;21.19;41.73;97926.66;5038997;28;20203;-72
2024/03/21 09:58:16;;;;;;;4.50;3.70;;;;;;;21.35;41.83;97925.47;5029952;28;20492;-72
2024/03/21 10:00:43;;;;;;;6.27;4.43;;;;;;;21.46;41.73;97924.03;5030529;28;20407;-71
2024/03/21 10:03:14;;;;;;;4.77;4.37;;;;;;;21.31;41.44;97929.56;5033563;28;20450;-72
2024/03/21 10:05:46;;;;;;;4.90;3.70;;;;;;;21.26;41.43;97942.66;5030622;28;20505;-72
2024/03/21 10:08:15;;;;;;;4.67;4.10;;;;;;;21.16;41.35;97937.75;5025380;28;20568;-72
2024/03/21 10:10:43;;;;;;;8.50;4.10;;;;;;;21.06;41.82;97939.97;5024782;28;20561;-74
2024/03/21 10:13:09;;;;;;;12.43;5.37;;;;;;;21.02;41.61;97944.88;5029315;28;20795;-74
2024/03/21 10:15:35;;;;;;;5.13;4.63;;;;;;;21.16;41.33;97940.41;5029581;28;20437;-72
2024/03/21 10:18:01;;;;;;;10.10;4.70;;;;;;;21.52;41.11;97947.22;5027830;28;20659;-73
2024/03/21 10:20:27;;;;;;;8.20;4.50;;;;;;;21.96;41.65;97946.78;5003431;28;20461;-73
2024/03/21 10:22:53;;;;;;;4.67;3.83;;;;;;;22.62;40.34;97945.81;5031435;28;20414;-72
2024/03/21 10:25:19;;;;;;;7.80;4.43;;;;;;;23.19;39.03;97938.94;5032880;28;20180;-73
2024/03/21 10:27:46;;;;;;;8.00;5.20;;;;;;;23.51;37.37;97936.25;5017355;28;20449;-72
2024/03/21 10:30:19;;;;;;;5.00;4.20;;;;;;;23.92;37.53;97933.00;5040853;28;20275;-72
2024/03/21 10:32:46;;;;;;;6.40;4.43;;;;;;;24.41;35.59;97926.16;5027521;28;20435;-72
2024/03/21 10:35:17;;;;;;;8.20;4.20;;;;;;;24.28;35.11;97927.09;5034799;28;20419;-73
2024/03/21 10:37:43;;;;;;;5.17;3.83;;;;;;;24.16;34.89;97929.72;5029253;28;20537;-72
2024/03/21 10:40:13;;;;;;;7.40;4.53;;;;;;;23.76;36.00;97936.25;5029390;28;20431;-73
2024/03/21 10:42:42;;;;;;;6.10;4.50;;;;;;;23.98;35.43;97925.97;5037231;28;20429;-71
2024/03/21 10:45:08;;;;;;;7.37;5.47;;;;;;;23.64;35.54;97933.47;5034275;28;20422;-72
2024/03/21 10:47:34;;;;;;;9.43;5.23;;;;;;;23.49;35.93;97938.31;5036491;28;21126;-72
2024/03/21 10:50:00;;;;;;;7.70;5.77;;;;;;;23.50;36.19;97937.28;5027971;28;20466;-72
2024/03/21 10:52:25;;;;;;;9.77;5.10;;;;;;;23.42;36.77;97947.25;5025625;28;20171;-73
2024/03/21 10:54:52;;;;;;;8.73;5.30;;;;;;;23.37;37.16;97943.59;5029376;28;20263;-73
2024/03/21 10:57:21;;;;;;;9.23;6.33;;;;;;;23.13;36.71;97941.44;5043461;28;20272;-71
2024/03/21 10:59:57;;;;;;;10.77;7.17;;;;;;;22.98;36.77;97944.41;5028834;28;20430;-73
2024/03/21 11:02:26;;;;;;;8.83;6.10;;;;;;;22.95;37.02;97946.66;5031181;28;20416;-71
2024/03/21 11:04:53;;;;;;;14.40;7.73;;;;;;;23.04;36.29;97942.72;5029239;28;20427;-72
2024/03/21 11:07:19;;;;;;;8.27;6.77;;;;;;;22.77;36.55;97942.88;5016525;28;20454;-72
2024/03/21 11:09:45;;;;;;;8.17;6.03;;;;;;;22.84;36.65;97945.50;5034822;28;20454;-72
2024/03/21 11:12:14;;;;;;;10.77;6.07;;;;;;;23.14;36.46;97945.75;5035643;28;20454;-72
2024/03/21 11:14:43;;;;;;;9.17;6.13;;;;;;;23.42;36.48;97947.25;5036909;28;20480;-72
2024/03/21 11:17:10;;;;;;;7.13;5.70;;;;;;;23.33;35.29;97953.88;5028026;28;20529;-72
2024/03/21 11:19:35;;;;;;;11.30;6.10;;;;;;;23.34;35.24;97952.84;5028666;28;20419;-72
2024/03/21 11:22:01;;;;;;;9.80;5.70;;;;;;;23.19;35.50;97950.44;5032156;28;20824;-73
2024/03/21 11:24:26;;;;;;;10.23;6.30;;;;;;;22.96;35.91;97948.31;5028174;28;20176;-74
2024/03/21 11:26:51;;;;;;;10.00;5.77;;;;;;;22.73;36.35;97951.53;5032259;28;20533;-72
2024/03/21 11:29:17;;;;;;;8.93;5.60;;;;;;;22.45;36.50;97961.47;5028684;28;20623;-72